Time;durP1;ratioP1;P1;durP2;ratioP2;P2;SDS_P1;SDS_P2;PMS_P1;PMS_P2;Temp;Humidity;BMP_temperature;BMP_pressure;BME280_temperature;BME280_humidity;BME280_pressure;Samples;Min_cycle;Max_cycle;Signal;HPM_P1;HPM_P2
2023/12/07 00:00:36;;;;;;;22.97;8.77;;;0.10;99.90;;;;;;5071808;28;20119;-56
2023/12/07 00:03:02;;;;;;;22.17;8.30;;;0.10;99.90;;;;;;5071949;28;20128;-55
2023/12/07 00:05:27;;;;;;;25.53;8.50;;;0.10;99.90;;;;;;5071687;28;20029;-56
2023/12/07 00:07:53;;;;;;;23.67;9.13;;;0.00;99.90;;;;;;5071815;28;20396;-57
2023/12/07 00:10:18;;;;;;;20.40;8.77;;;0.00;99.90;;;;;;5070340;28;20048;-57
2023/12/07 00:12:44;;;;;;;22.73;9.60;;;-0.10;99.90;;;;;;5071760;28;20044;-57
2023/12/07 00:15:10;;;;;;;22.80;9.37;;;0.00;99.90;;;;;;5071639;28;20036;-56
2023/12/07 00:17:35;;;;;;;27.53;9.13;;;0.00;99.90;;;;;;5071684;28;20032;-56
2023/12/07 00:20:01;;;;;;;20.67;8.80;;;0.00;99.90;;;;;;5071653;28;20032;-56
2023/12/07 00:22:28;;;;;;;25.80;8.90;;;0.00;99.90;;;;;;5071735;28;20040;-57
2023/12/07 00:24:54;;;;;;;21.87;8.77;;;0.00;99.90;;;;;;5070182;28;20033;-55
2023/12/07 00:27:19;;;;;;;29.50;9.07;;;0.00;99.90;;;;;;5071584;28;20039;-56
2023/12/07 00:29:45;;;;;;;25.30;8.77;;;0.10;99.90;;;;;;5071586;28;20469;-56
2023/12/07 00:32:11;;;;;;;20.33;8.57;;;0.10;99.90;;;;;;5071971;28;20029;-56
2023/12/07 00:34:36;;;;;;;27.97;9.63;;;0.10;99.90;;;;;;5071628;28;20033;-56
2023/12/07 00:37:03;;;;;;;24.50;9.77;;;0.00;99.90;;;;;;5071414;28;20028;-56
2023/12/07 00:39:28;;;;;;;22.53;8.90;;;0.00;99.90;;;;;;5071364;28;20040;-54
2023/12/07 00:41:54;;;;;;;21.87;9.67;;;0.10;99.90;;;;;;5070262;28;20139;-57
2023/12/07 00:44:20;;;;;;;25.23;9.40;;;0.20;99.90;;;;;;5071562;28;20028;-57
2023/12/07 00:46:45;;;;;;;24.40;9.30;;;0.20;99.90;;;;;;5071311;28;20029;-56
2023/12/07 00:49:12;;;;;;;20.73;8.80;;;0.20;99.90;;;;;;5071319;28;20033;-57
2023/12/07 00:51:37;;;;;;;27.27;10.30;;;0.30;99.90;;;;;;5071270;28;20036;-57
2023/12/07 00:54:03;;;;;;;22.57;9.07;;;0.30;99.90;;;;;;5071373;28;20537;-56
2023/12/07 00:56:29;;;;;;;23.67;10.50;;;0.30;99.90;;;;;;5071204;28;20469;-55
2023/12/07 00:58:54;;;;;;;30.17;9.27;;;0.30;99.90;;;;;;5073807;28;20031;-56
2023/12/07 01:01:20;;;;;;;27.20;10.80;;;0.40;99.90;;;;;;5075058;28;20481;-57
2023/12/07 01:03:45;;;;;;;42.47;11.00;;;0.40;99.90;;;;;;5075072;28;20499;-56
2023/12/07 01:06:11;;;;;;;30.43;10.27;;;0.40;99.90;;;;;;5074892;28;20078;-56
2023/12/07 01:08:37;;;;;;;28.60;9.73;;;0.30;99.90;;;;;;5074864;28;20434;-56
2023/12/07 01:11:04;;;;;;;28.97;11.37;;;0.40;99.90;;;;;;5074806;28;20086;-57
2023/12/07 01:13:30;;;;;;;33.40;9.43;;;0.50;99.90;;;;;;5075100;28;20028;-55
2023/12/07 01:15:56;;;;;;;30.67;10.90;;;0.40;99.90;;;;;;5074058;28;20094;-57
2023/12/07 01:18:21;;;;;;;33.07;11.30;;;0.50;99.90;;;;;;5073518;28;20036;-57
2023/12/07 01:20:48;;;;;;;34.17;11.63;;;0.50;99.90;;;;;;5074612;28;20515;-56
2023/12/07 01:23:14;;;;;;;26.43;11.33;;;0.50;99.90;;;;;;5074765;28;20033;-56
2023/12/07 01:25:39;;;;;;;30.03;10.67;;;0.50;99.90;;;;;;5073484;28;20408;-57
2023/12/07 01:28:05;;;;;;;32.10;11.30;;;0.50;99.90;;;;;;5073390;28;20024;-57
2023/12/07 01:30:31;;;;;;;29.67;11.40;;;0.50;99.90;;;;;;5074479;28;20520;-57
2023/12/07 01:32:57;;;;;;;24.23;10.50;;;0.50;99.90;;;;;;5074589;28;20071;-57
2023/12/07 01:35:22;;;;;;;26.80;10.43;;;0.70;99.90;;;;;;5074292;28;20119;-54
2023/12/07 01:37:48;;;;;;;28.43;10.50;;;0.70;99.90;;;;;;5074366;28;20119;-55
2023/12/07 01:40:14;;;;;;;35.27;12.50;;;0.70;99.90;;;;;;5074404;28;20043;-53
2023/12/07 01:42:48;;;;;;;30.07;11.07;;;0.80;99.90;;;;;;5074425;28;20025;-56
2023/12/07 01:45:14;;;;;;;28.43;10.93;;;0.70;99.90;;;;;;5074219;28;20029;-54
2023/12/07 01:47:41;;;;;;;32.03;12.30;;;0.80;99.90;;;;;;5074278;28;20029;-55
2023/12/07 01:50:08;;;;;;;31.90;11.97;;;0.80;99.90;;;;;;5073973;28;20040;-55
2023/12/07 01:52:37;;;;;;;35.83;12.33;;;0.70;99.90;;;;;;5074206;28;20112;-54
2023/12/07 01:55:04;;;;;;;28.60;11.55;;;0.70;99.90;;;;;;5085564;28;20611;-57
2023/12/07 01:57:30;;;;;;;27.43;11.53;;;0.60;99.90;;;;;;5074161;28;20033;-57
2023/12/07 01:59:56;;;;;;;29.40;10.90;;;0.60;99.90;;;;;;5073974;28;20028;-57
2023/12/07 02:02:21;;;;;;;32.30;12.07;;;0.60;99.90;;;;;;5073983;28;20028;-56
2023/12/07 02:04:47;;;;;;;29.93;10.93;;;0.60;99.90;;;;;;5074326;28;20056;-55
2023/12/07 02:07:13;;;;;;;32.73;12.27;;;0.60;99.90;;;;;;5074018;28;20100;-55
2023/12/07 02:09:38;;;;;;;29.93;11.50;;;0.60;99.90;;;;;;5073362;28;20025;-57
2023/12/07 02:12:04;;;;;;;30.83;12.33;;;0.60;99.90;;;;;;5074036;28;20029;-56
2023/12/07 02:14:30;;;;;;;30.43;11.67;;;0.60;99.90;;;;;;5074134;28;20028;-56
2023/12/07 02:17:14;;;;;;;36.93;11.97;;;0.60;99.90;;;;;;5073576;28;20032;-57
2023/12/07 02:20:13;;;;;;;37.03;10.97;;;0.60;99.90;;;;;;5073643;28;20077;-56
2023/12/07 02:22:54;;;;;;;30.33;8.32;;;0.50;99.90;;;;;;5073629;28;20082;-56
2023/12/07 02:25:26;;;;;;;21.83;9.80;;;0.60;99.90;;;;;;5073476;28;20036;-56
2023/12/07 02:27:51;;;;;;;42.03;11.40;;;0.60;99.90;;;;;;5073604;28;20036;-57
2023/12/07 02:30:17;;;;;;;23.90;10.87;;;0.50;99.90;;;;;;5073272;28;20393;-56
2023/12/07 02:32:45;;;;;;;28.87;11.07;;;0.50;99.90;;;;;;5073417;28;20028;-56
2023/12/07 02:35:12;;;;;;;22.37;10.23;;;0.40;99.90;;;;;;5073297;28;20028;-57
2023/12/07 02:37:51;;;;;;;33.27;11.60;;;0.40;99.90;;;;;;5073511;28;20064;-55
2023/12/07 02:40:23;;;;;;;27.20;10.95;;;0.40;99.90;;;;;;5073320;28;20025;-56
2023/12/07 02:42:49;;;;;;;33.63;12.47;;;0.40;99.90;;;;;;5073348;28;20025;-57
2023/12/07 02:45:15;;;;;;;29.77;12.07;;;0.40;99.90;;;;;;5073098;28;20082;-54
2023/12/07 02:47:43;;;;;;;28.33;11.83;;;0.40;99.90;;;;;;5073087;28;20392;-56
2023/12/07 02:50:09;;;;;;;30.93;12.03;;;0.50;99.90;;;;;;5072952;28;20024;-56
2023/12/07 02:52:35;;;;;;;28.00;12.27;;;0.50;99.90;;;;;;5072984;28;20439;-57
2023/12/07 02:55:02;;;;;;;28.10;11.03;;;0.60;99.90;;;;;;5072726;28;20069;-56
2023/12/07 02:57:28;;;;;;;31.53;11.77;;;0.70;99.90;;;;;;5072975;28;20157;-56
2023/12/07 02:59:53;;;;;;;35.07;10.93;;;0.70;99.90;;;;;;5072679;28;20116;-57
2023/12/07 03:02:19;;;;;;;25.27;10.47;;;0.80;99.90;;;;;;5072921;28;20029;-56
2023/12/07 03:04:44;;;;;;;31.53;11.97;;;0.90;99.90;;;;;;5072492;28;20043;-56
2023/12/07 03:07:10;;;;;;;26.23;10.33;;;1.00;99.90;;;;;;5072597;28;20111;-56
2023/12/07 03:09:36;;;;;;;28.90;11.27;;;1.00;99.90;;;;;;5072487;28;20031;-55
2023/12/07 03:12:01;;;;;;;25.20;10.73;;;1.00;99.90;;;;;;5072522;28;20499;-56
2023/12/07 03:14:27;;;;;;;25.97;9.83;;;1.00;99.90;;;;;;5072599;28;20028;-53
2023/12/07 03:16:52;;;;;;;25.90;11.30;;;1.00;99.90;;;;;;5072391;28;20064;-56
2023/12/07 03:19:18;;;;;;;33.47;12.57;;;1.00;99.90;;;;;;5072335;28;20083;-54
2023/12/07 03:21:43;;;;;;;31.67;11.40;;;1.00;99.90;;;;;;5071477;28;20041;-56
2023/12/07 03:24:10;;;;;;;27.33;11.10;;;1.00;99.90;;;;;;5072326;28;20089;-56
2023/12/07 03:26:36;;;;;;;26.93;10.80;;;1.00;99.90;;;;;;5072222;28;20040;-56
2023/12/07 03:29:02;;;;;;;31.60;11.87;;;1.00;99.90;;;;;;5072139;28;20032;-57
2023/12/07 03:31:28;;;;;;;31.73;11.13;;;1.00;99.90;;;;;;5072117;28;20032;-56
2023/12/07 03:33:55;;;;;;;33.27;12.77;;;1.10;99.90;;;;;;5072226;28;20082;-57
2023/12/07 03:36:21;;;;;;;38.77;12.57;;;1.10;99.90;;;;;;5072042;28;20112;-56
2023/12/07 03:38:47;;;;;;;41.67;12.83;;;1.10;99.90;;;;;;5072107;28;20131;-56
2023/12/07 03:41:13;;;;;;;33.73;14.07;;;1.10;99.90;;;;;;5072110;28;20525;-54
2023/12/07 03:43:39;;;;;;;34.60;12.83;;;1.10;99.90;;;;;;5072108;28;20036;-57
2023/12/07 03:46:05;;;;;;;36.93;13.73;;;1.10;99.90;;;;;;5072039;28;20034;-56
2023/12/07 03:48:32;;;;;;;34.13;13.53;;;1.10;99.90;;;;;;5071966;28;20067;-57
2023/12/07 03:50:58;;;;;;;36.63;12.50;;;1.10;99.90;;;;;;5070704;28;20032;-56
2023/12/07 03:53:24;;;;;;;39.37;13.93;;;1.10;99.90;;;;;;5071922;28;20539;-56
2023/12/07 03:55:49;;;;;;;36.07;13.53;;;1.20;99.90;;;;;;5072013;28;20035;-55
2023/12/07 03:58:15;;;;;;;35.37;12.93;;;1.30;99.90;;;;;;5072122;28;20035;-56
2023/12/07 04:00:41;;;;;;;35.97;14.33;;;1.30;99.90;;;;;;5072359;28;20029;-56
2023/12/07 04:03:07;;;;;;;33.87;12.67;;;1.40;99.90;;;;;;5071894;28;20055;-55
2023/12/07 04:05:33;;;;;;;34.83;13.20;;;1.40;99.90;;;;;;5071659;28;20028;-56
2023/12/07 04:07:59;;;;;;;36.73;13.07;;;1.40;99.90;;;;;;5071773;28;20036;-56
2023/12/07 04:10:25;;;;;;;46.73;14.17;;;1.40;99.90;;;;;;5071694;28;20033;-56
2023/12/07 04:12:52;;;;;;;38.80;13.17;;;1.40;99.90;;;;;;5071798;28;20409;-56
2023/12/07 04:15:21;;;;;;;39.67;14.70;;;1.40;99.90;;;;;;5071675;28;20025;-57
2023/12/07 04:17:47;;;;;;;38.13;13.02;;;1.40;99.90;;;;;;5071748;28;20055;-56
2023/12/07 04:20:13;;;;;;;30.80;12.17;;;1.40;99.90;;;;;;5070374;28;20125;-57
2023/12/07 04:22:39;;;;;;;37.77;13.93;;;1.50;99.90;;;;;;5071764;28;20143;-54
2023/12/07 04:25:05;;;;;;;32.97;12.53;;;1.50;99.90;;;;;;5071653;28;20032;-54
2023/12/07 04:27:32;;;;;;;37.57;14.30;;;1.60;99.90;;;;;;5072301;28;20539;-57
2023/12/07 04:29:57;;;;;;;37.13;13.43;;;1.60;99.90;;;;;;5070724;28;20086;-52
2023/12/07 04:32:23;;;;;;;37.90;13.47;;;1.60;99.90;;;;;;5073883;28;20048;-52
2023/12/07 04:34:49;;;;;;;37.50;12.87;;;1.60;99.90;;;;;;5076034;28;20032;-52
2023/12/07 04:37:15;;;;;;;35.17;13.03;;;1.60;99.90;;;;;;5076496;28;20082;-52
2023/12/07 04:39:40;;;;;;;36.27;13.27;;;1.60;99.90;;;;;;5076622;28;20071;-53
2023/12/07 04:42:06;;;;;;;33.17;12.70;;;1.70;99.90;;;;;;5076804;28;20033;-52
2023/12/07 04:44:32;;;;;;;36.50;12.80;;;1.80;99.90;;;;;;5076577;28;20028;-52
2023/12/07 04:46:57;;;;;;;45.80;15.27;;;1.80;99.90;;;;;;5076295;28;20484;-55
2023/12/07 04:49:23;;;;;;;33.17;13.40;;;1.80;99.90;;;;;;5076412;28;20483;-52
2023/12/07 04:51:48;;;;;;;37.30;12.73;;;1.80;99.90;;;;;;5077298;28;20047;-52
2023/12/07 04:54:14;;;;;;;39.77;12.43;;;1.80;99.90;;;;;;5077593;28;20548;-56
2023/12/07 04:56:43;;;;;;;35.33;12.60;;;1.90;99.90;;;;;;5074501;28;20037;-55
2023/12/07 04:59:12;;;;;;;32.20;13.45;;;1.90;99.90;;;;;;5075396;28;20043;-57
2023/12/07 05:01:38;;;;;;;32.88;12.18;;;1.90;99.90;;;;;;5075009;28;20044;-56
2023/12/07 05:04:04;;;;;;;37.30;13.03;;;1.90;99.90;;;;;;5075322;28;20040;-56
2023/12/07 05:06:31;;;;;;;39.57;15.33;;;1.90;99.90;;;;;;5074872;28;20111;-56
2023/12/07 05:08:57;;;;;;;36.10;13.70;;;1.90;99.90;;;;;;5074876;28;20032;-56
2023/12/07 05:11:22;;;;;;;35.33;12.50;;;1.90;99.90;;;;;;5074887;28;20120;-56
2023/12/07 05:13:48;;;;;;;35.03;12.30;;;1.90;99.90;;;;;;5075391;28;20024;-54
2023/12/07 05:16:14;;;;;;;34.37;13.03;;;2.00;99.90;;;;;;5074608;28;20033;-57
2023/12/07 05:18:40;;;;;;;40.90;15.30;;;2.00;99.90;;;;;;5074660;28;20035;-57
2023/12/07 05:21:06;;;;;;;36.07;12.37;;;2.00;99.90;;;;;;5074774;28;20111;-56
2023/12/07 05:23:32;;;;;;;36.77;13.77;;;2.10;99.90;;;;;;5073518;28;20396;-56
2023/12/07 05:25:57;;;;;;;37.20;12.23;;;2.20;99.90;;;;;;5074649;28;20086;-56
2023/12/07 05:28:23;;;;;;;41.60;14.03;;;2.10;99.90;;;;;;5074688;28;20043;-57
2023/12/07 05:30:49;;;;;;;40.57;12.60;;;2.20;99.90;;;;;;5074677;28;20032;-56
2023/12/07 05:33:15;;;;;;;35.87;13.80;;;2.10;99.90;;;;;;5074831;28;20028;-56
2023/12/07 05:35:40;;;;;;;40.53;13.90;;;2.20;99.90;;;;;;5073406;28;20075;-55
2023/12/07 05:38:06;;;;;;;35.40;13.07;;;2.20;99.90;;;;;;5074778;28;20072;-56
2023/12/07 05:40:31;;;;;;;33.93;12.43;;;2.20;99.90;;;;;;5074845;28;20033;-56
2023/12/07 05:42:57;;;;;;;37.90;13.30;;;2.20;99.90;;;;;;5074401;28;20021;-56
2023/12/07 05:45:23;;;;;;;39.17;13.43;;;2.30;99.90;;;;;;5074239;28;20623;-56
2023/12/07 05:47:48;;;;;;;34.60;12.43;;;2.30;99.90;;;;;;5075039;28;20028;-56
2023/12/07 05:50:14;;;;;;;31.80;12.60;;;2.20;99.90;;;;;;5074401;28;20057;-56
2023/12/07 05:52:40;;;;;;;30.17;11.73;;;2.30;99.90;;;;;;5074206;28;20408;-56
2023/12/07 05:55:06;;;;;;;31.20;12.00;;;2.30;99.90;;;;;;5074294;28;20162;-55
2023/12/07 05:57:31;;;;;;;35.67;12.27;;;2.30;99.90;;;;;;5074248;28;20036;-56
2023/12/07 05:59:57;;;;;;;32.93;12.10;;;2.40;99.90;;;;;;5074134;28;20028;-56
2023/12/07 06:02:23;;;;;;;36.83;13.87;;;2.40;99.90;;;;;;5074611;28;20036;-54
2023/12/07 06:04:48;;;;;;;37.10;12.67;;;2.40;99.90;;;;;;5073922;28;20077;-56
2023/12/07 06:07:14;;;;;;;33.47;12.83;;;2.50;99.90;;;;;;5075047;28;20036;-55
2023/12/07 06:09:41;;;;;;;32.20;12.13;;;2.40;99.90;;;;;;5073846;28;20456;-56
2023/12/07 06:12:07;;;;;;;29.70;12.10;;;2.40;99.90;;;;;;5073903;28;20068;-56
2023/12/07 06:14:32;;;;;;;32.07;11.97;;;2.50;99.90;;;;;;5073827;28;20106;-56
2023/12/07 06:16:59;;;;;;;31.00;12.73;;;2.50;99.90;;;;;;5073702;28;20123;-55
2023/12/07 06:19:25;;;;;;;34.57;11.77;;;2.40;99.90;;;;;;5073541;28;20082;-56
2023/12/07 06:21:50;;;;;;;33.83;12.23;;;2.40;99.90;;;;;;5073651;28;20401;-56
2023/12/07 06:24:16;;;;;;;29.67;12.33;;;2.40;99.90;;;;;;5073736;28;20028;-55
2023/12/07 06:26:42;;;;;;;31.97;12.23;;;2.40;99.90;;;;;;5073602;28;20036;-56
2023/12/07 06:29:07;;;;;;;32.37;13.30;;;2.40;99.90;;;;;;5073527;28;20024;-56
2023/12/07 06:31:33;;;;;;;32.77;12.10;;;2.40;99.90;;;;;;5073479;28;20028;-56
2023/12/07 06:34:00;;;;;;;31.50;12.83;;;2.40;99.90;;;;;;5073530;28;20528;-56
2023/12/07 06:36:26;;;;;;;31.00;12.60;;;2.40;99.90;;;;;;5073439;28;20036;-56
2023/12/07 06:38:54;;;;;;;32.57;12.57;;;2.40;99.90;;;;;;5073307;28;20032;-55
2023/12/07 06:41:20;;;;;;;32.60;13.30;;;2.40;99.90;;;;;;5072246;28;20478;-56
2023/12/07 06:43:46;;;;;;;28.40;11.77;;;2.40;99.90;;;;;;5073260;28;20043;-55
2023/12/07 06:46:12;;;;;;;31.00;12.47;;;2.30;99.90;;;;;;5073372;28;20036;-56
2023/12/07 06:48:38;;;;;;;35.00;12.87;;;2.40;99.90;;;;;;5073254;28;20037;-55
2023/12/07 06:51:04;;;;;;;30.77;12.43;;;2.40;99.90;;;;;;5073112;28;20162;-57
2023/12/07 06:53:31;;;;;;;29.57;13.03;;;2.30;99.90;;;;;;5073178;28;20029;-57
2023/12/07 06:55:57;;;;;;;29.53;11.93;;;2.30;99.90;;;;;;5073034;28;20025;-57
2023/12/07 06:58:23;;;;;;;33.90;12.00;;;2.30;99.90;;;;;;5072977;28;20024;-57
2023/12/07 07:00:49;;;;;;;26.43;12.17;;;2.20;99.90;;;;;;5072998;28;20385;-56
2023/12/07 07:03:15;;;;;;;25.90;11.43;;;2.10;99.90;;;;;;5072951;28;20392;-56
2023/12/07 07:05:40;;;;;;;28.67;12.40;;;2.20;99.90;;;;;;5072917;28;20036;-56
2023/12/07 07:08:07;;;;;;;30.70;11.20;;;2.10;99.90;;;;;;5072987;28;20093;-56
2023/12/07 07:10:33;;;;;;;28.00;11.43;;;2.00;99.90;;;;;;5072864;28;20036;-56
2023/12/07 07:13:05;;;;;;;33.60;11.97;;;2.00;99.90;;;;;;5072833;28;20098;-53
2023/12/07 07:15:32;;;;;;;29.47;12.07;;;1.90;99.90;;;;;;5072953;28;20077;-54
2023/12/07 07:17:57;;;;;;;34.13;12.37;;;1.90;99.90;;;;;;5072636;28;20028;-55
2023/12/07 07:20:23;;;;;;;25.63;10.83;;;1.80;99.90;;;;;;5072675;28;20119;-56
2023/12/07 07:22:49;;;;;;;26.47;11.60;;;1.80;99.90;;;;;;5072746;28;20028;-56
2023/12/07 07:25:16;;;;;;;30.40;11.20;;;1.80;99.90;;;;;;5072534;28;20029;-56
2023/12/07 07:27:42;;;;;;;28.20;12.00;;;1.80;99.90;;;;;;5072655;28;20501;-57
2023/12/07 07:30:08;;;;;;;34.13;12.13;;;1.80;99.90;;;;;;5071271;28;20040;-56
2023/12/07 07:32:34;;;;;;;29.70;12.03;;;1.80;99.90;;;;;;5072361;28;20032;-56
2023/12/07 07:34:59;;;;;;;32.03;12.57;;;1.80;99.90;;;;;;5072384;28;20028;-57
2023/12/07 07:37:25;;;;;;;30.47;11.50;;;1.70;99.90;;;;;;5072424;28;20020;-56
2023/12/07 07:39:51;;;;;;;32.33;12.13;;;1.70;99.90;;;;;;5072179;28;20608;-57
2023/12/07 07:42:16;;;;;;;30.43;12.60;;;1.70;99.90;;;;;;5072361;28;20033;-57
2023/12/07 07:44:42;;;;;;;32.80;13.60;;;1.70;99.90;;;;;;5072354;28;20032;-57
2023/12/07 07:47:08;;;;;;;30.13;11.73;;;1.70;99.90;;;;;;5071923;28;20059;-56
2023/12/07 07:49:33;;;;;;;31.30;12.27;;;1.70;99.90;;;;;;5072134;28;20032;-57
2023/12/07 07:51:59;;;;;;;35.77;12.00;;;1.70;99.90;;;;;;5071956;28;20025;-57
2023/12/07 07:54:25;;;;;;;32.07;13.00;;;1.70;99.90;;;;;;5072225;28;20020;-57
2023/12/07 07:56:51;;;;;;;29.70;12.17;;;1.70;99.90;;;;;;5071973;28;20473;-54
2023/12/07 07:59:16;;;;;;;40.77;14.30;;;1.80;99.90;;;;;;5071877;28;20044;-56
2023/12/07 08:01:42;;;;;;;29.20;11.57;;;1.70;99.90;;;;;;5071942;28;20032;-56
2023/12/07 08:04:09;;;;;;;33.13;11.03;;;1.70;99.90;;;;;;5072169;28;20028;-54
2023/12/07 08:06:35;;;;;;;33.33;12.57;;;1.80;99.90;;;;;;5071530;28;20035;-52
2023/12/07 08:09:01;;;;;;;32.40;12.47;;;1.70;99.90;;;;;;5071996;28;20036;-56
2023/12/07 08:11:27;;;;;;;34.70;12.67;;;1.80;99.90;;;;;;5071904;28;20087;-56
2023/12/07 08:13:52;;;;;;;37.43;13.60;;;1.80;99.90;;;;;;5071968;28;20033;-56
2023/12/07 08:16:19;;;;;;;33.03;13.03;;;1.80;99.90;;;;;;5070446;28;20040;-56
2023/12/07 08:18:44;;;;;;;29.60;10.53;;;1.90;99.90;;;;;;5071748;28;20131;-56
2023/12/07 08:21:21;;;;;;;29.10;11.97;;;2.00;99.90;;;;;;5071842;28;20489;-56
2023/12/07 08:23:47;;;;;;;30.30;11.77;;;2.00;99.90;;;;;;5071956;28;20171;-54
2023/12/07 08:26:14;;;;;;;32.13;11.43;;;2.00;99.90;;;;;;5071798;28;20111;-53
2023/12/07 08:28:40;;;;;;;35.27;11.77;;;2.00;99.90;;;;;;5071825;28;20039;-56
2023/12/07 08:31:06;;;;;;;32.07;11.03;;;2.00;99.90;;;;;;5071675;28;20489;-56
2023/12/07 08:33:34;;;;;;;30.67;12.30;;;2.00;99.90;;;;;;5071835;28;20032;-55
2023/12/07 08:36:00;;;;;;;28.20;11.40;;;2.20;99.90;;;;;;5071594;28;20505;-54
2023/12/07 08:38:25;;;;;;;31.63;12.47;;;2.20;99.90;;;;;;5071467;28;20028;-55
2023/12/07 08:40:51;;;;;;;31.13;11.90;;;2.10;99.90;;;;;;5071835;28;20361;-56
2023/12/07 08:43:22;;;;;;;21.17;10.57;;;2.20;99.90;;;;;;5071738;28;20052;-56
2023/12/07 08:45:48;;;;;;;27.77;11.80;;;2.30;99.90;;;;;;5071949;28;20109;-56
2023/12/07 08:48:14;;;;;;;31.50;11.23;;;2.40;99.90;;;;;;5071630;28;20125;-56
2023/12/07 08:50:40;;;;;;;27.03;10.73;;;2.50;99.90;;;;;;5071437;28;20404;-56
2023/12/07 08:53:06;;;;;;;23.07;10.23;;;2.60;99.90;;;;;;5071557;28;20029;-56
2023/12/07 08:55:32;;;;;;;27.93;10.10;;;2.60;99.90;;;;;;5071679;28;20431;-56
2023/12/07 08:57:59;;;;;;;22.10;9.53;;;2.60;99.90;;;;;;5071667;28;20477;-55
2023/12/07 09:00:25;;;;;;;26.13;9.90;;;2.80;99.90;;;;;;5071437;28;20035;-56
2023/12/07 09:02:51;;;;;;;23.30;10.03;;;2.80;99.90;;;;;;5071661;28;20032;-57
2023/12/07 09:05:17;;;;;;;25.60;9.67;;;2.80;99.90;;;;;;5071700;28;20025;-56
2023/12/07 09:07:44;;;;;;;21.70;9.60;;;3.00;99.90;;;;;;5071389;28;20269;-56
2023/12/07 09:10:10;;;;;;;25.33;8.97;;;3.10;99.90;;;;;;5071413;28;20035;-55
2023/12/07 09:12:36;;;;;;;23.10;8.97;;;3.10;99.90;;;;;;5071433;28;20036;-55
2023/12/07 09:15:03;;;;;;;22.57;8.93;;;3.30;99.90;;;;;;5071159;28;20162;-56
2023/12/07 09:17:29;;;;;;;18.10;8.00;;;3.40;99.90;;;;;;5071292;28;20111;-55
2023/12/07 09:19:55;;;;;;;23.83;10.00;;;3.50;99.90;;;;;;5073667;28;20112;-55
2023/12/07 09:22:21;;;;;;;20.13;8.57;;;3.40;99.90;;;;;;5073583;28;20397;-56
2023/12/07 09:24:46;;;;;;;17.57;8.00;;;3.40;99.90;;;;;;5073616;28;20044;-56
2023/12/07 09:27:13;;;;;;;18.93;7.47;;;3.40;99.90;;;;;;5073544;28;20127;-56
2023/12/07 09:29:39;;;;;;;17.47;7.90;;;3.50;99.90;;;;;;5073541;28;20166;-56
2023/12/07 09:32:06;;;;;;;17.70;7.30;;;3.40;99.90;;;;;;5074732;28;20115;-55
2023/12/07 09:34:32;;;;;;;16.00;7.90;;;3.50;99.90;;;;;;5074731;28;20434;-53
2023/12/07 09:37:08;;;;;;;18.03;7.83;;;3.50;99.90;;;;;;5074443;28;20056;-54
2023/12/07 09:39:34;;;;;;;13.27;5.67;;;3.50;99.90;;;;;;5074525;28;20036;-55
2023/12/07 09:42:00;;;;;;;21.00;7.53;;;3.60;99.90;;;;;;5074762;28;20034;-55
2023/12/07 09:44:26;;;;;;;16.43;7.67;;;3.70;99.90;;;;;;5074354;28;20034;-53
2023/12/07 09:46:52;;;;;;;17.43;7.77;;;3.80;99.90;;;;;;5074528;28;20036;-56
2023/12/07 09:49:18;;;;;;;14.33;7.37;;;4.00;99.90;;;;;;5074325;28;20032;-54
2023/12/07 09:51:46;;;;;;;14.37;6.57;;;4.10;99.90;;;;;;5074379;28;20041;-55
2023/12/07 09:54:12;;;;;;;16.57;7.23;;;4.40;99.90;;;;;;5074294;28;20448;-56
2023/12/07 09:56:37;;;;;;;15.23;6.23;;;5.00;99.90;;;;;;5074309;28;20111;-57
2023/12/07 09:59:04;;;;;;;13.37;6.10;;;6.30;99.90;;;;;;5074081;28;20032;-57
2023/12/07 10:01:30;;;;;;;11.37;6.10;;;7.50;99.90;;;;;;5074253;28;20036;-57
2023/12/07 10:04:18;;;;;;;13.00;5.90;;;8.60;99.90;;;;;;5074085;28;20048;-57
2023/12/07 10:06:45;;;;;;;12.03;5.83;;;9.70;99.90;;;;;;5074105;28;20119;-57
2023/12/07 10:09:11;;;;;;;11.00;5.05;;;10.70;99.90;;;;;;5074090;28;20033;-57
2023/12/07 10:11:37;;;;;;;9.07;5.03;;;11.30;99.90;;;;;;5074033;28;20033;-57
2023/12/07 10:14:03;;;;;;;9.20;4.88;;;12.00;99.90;;;;;;5074036;28;20033;-57
2023/12/07 10:16:28;;;;;;;8.18;4.82;;;12.10;99.90;;;;;;5073889;28;20028;-56
2023/12/07 10:18:54;;;;;;;10.48;4.78;;;11.60;99.90;;;;;;5073694;28;20020;-57
2023/12/07 10:21:32;;;;;;;10.45;5.13;;;11.50;99.90;;;;;;5073700;28;20060;-57
2023/12/07 10:23:57;;;;;;;8.02;4.97;;;11.40;99.90;;;;;;5073953;28;20082;-57
2023/12/07 10:26:23;;;;;;;9.13;4.95;;;11.40;99.90;;;;;;5073728;28;20037;-57
2023/12/07 10:28:53;;;;;;;10.75;5.15;;;11.20;99.90;;;;;;5073678;28;20043;-56
2023/12/07 10:31:18;;;;;;;7.97;4.07;;;11.40;99.90;;;;;;5073394;28;20392;-56
2023/12/07 10:33:50;;;;;;;7.47;4.22;;;11.60;99.90;;;;;;5073591;28;20119;-57
2023/12/07 10:36:16;;;;;;;8.52;3.65;;;12.50;99.90;;;;;;5073498;28;20023;-56
2023/12/07 10:38:41;;;;;;;8.10;4.75;;;12.10;98.80;;;;;;5073609;28;20546;-56
2023/12/07 10:41:09;;;;;;;10.30;5.03;;;11.20;99.90;;;;;;5073684;28;20032;-54
2023/12/07 10:43:37;;;;;;;9.48;4.70;;;10.70;99.90;;;;;;5073722;28;20082;-55
2023/12/07 10:46:05;;;;;;;10.25;4.15;;;10.90;99.90;;;;;;5073588;28;20051;-54
2023/12/07 10:48:32;;;;;;;9.18;4.15;;;10.90;99.90;;;;;;5073439;28;20029;-53
2023/12/07 10:51:01;;;;;;;9.70;4.70;;;10.50;99.90;;;;;;5073412;28;20032;-54
2023/12/07 10:53:29;;;;;;;11.73;5.05;;;9.30;99.90;;;;;;5073729;28;20388;-55
2023/12/07 10:55:58;;;;;;;8.03;4.40;;;8.80;99.90;;;;;;5073266;28;20028;-52
2023/12/07 10:58:27;;;;;;;10.65;4.38;;;8.00;99.90;;;;;;5073055;28;20086;-55
2023/12/07 11:00:54;;;;;;;7.80;4.35;;;8.10;99.90;;;;;;5073649;28;20070;-55
2023/12/07 11:03:23;;;;;;;10.53;4.93;;;8.00;99.90;;;;;;5072276;28;20584;-52
2023/12/07 11:05:49;;;;;;;10.85;4.70;;;8.00;99.90;;;;;;5073141;28;20086;-54
2023/12/07 11:08:55;;;;;;;12.37;5.30;;;8.20;99.90;;;;;;5073181;28;20036;-52
2023/12/07 11:11:44;;;;;;;10.20;5.07;;;8.20;99.90;;;;;;5071581;28;20044;-53
2023/12/07 11:14:14;;;;;;;8.30;4.85;;;8.40;99.90;;;;;;5073914;28;20107;-55
2023/12/07 11:16:45;;;;;;;8.93;4.63;;;8.30;99.90;;;;;;5073242;28;20024;-53
2023/12/07 11:19:43;;;;;;;10.00;5.50;;;8.50;99.90;;;;;;5074378;28;20090;-55
2023/12/07 11:22:12;;;;;;;10.98;5.22;;;8.50;99.90;;;;;;5051629;28;20044;-55
2023/12/07 11:24:38;;;;;;;11.35;4.95;;;8.60;99.90;;;;;;5072767;28;20078;-55
2023/12/07 11:27:04;;;;;;;10.47;5.27;;;8.50;99.90;;;;;;5072361;28;20028;-56
2023/12/07 11:29:30;;;;;;;10.30;5.73;;;8.30;99.90;;;;;;5072367;28;20028;-56
2023/12/07 11:32:04;;;;;;;10.87;5.33;;;8.10;99.90;;;;;;5071008;28;20033;-53
2023/12/07 11:34:43;;;;;;;11.10;5.50;;;7.70;99.90;;;;;;5072420;28;20037;-56
2023/12/07 11:37:10;;;;;;;8.90;4.13;;;7.40;99.90;;;;;;5072256;28;20386;-56
2023/12/07 11:39:46;;;;;;;10.73;5.60;;;7.20;99.90;;;;;;5072313;28;20508;-55
2023/12/07 11:42:16;;;;;;;9.30;4.77;;;7.40;99.90;;;;;;5072334;28;20070;-56
2023/12/07 11:44:46;;;;;;;12.33;5.10;;;7.40;99.90;;;;;;5072128;28;20028;-56
2023/12/07 11:47:16;;;;;;;10.13;5.17;;;7.90;99.90;;;;;;5072008;28;20453;-56
2023/12/07 11:49:43;;;;;;;11.67;5.93;;;8.60;99.90;;;;;;5072083;28;20115;-53
2023/12/07 11:52:16;;;;;;;12.10;4.97;;;9.00;99.90;;;;;;5071846;28;20024;-56
2023/12/07 11:54:45;;;;;;;10.30;4.90;;;9.20;99.90;;;;;;5070490;28;20500;-55
2023/12/07 11:57:10;;;;;;;13.03;5.63;;;9.30;99.90;;;;;;5072195;28;20028;-56
2023/12/07 11:59:36;;;;;;;8.50;4.80;;;8.50;99.90;;;;;;5071785;28;20516;-55
2023/12/07 12:02:04;;;;;;;10.37;5.20;;;7.80;99.90;;;;;;5072043;28;20025;-55
2023/12/07 12:04:30;;;;;;;12.43;5.43;;;7.30;99.90;;;;;;5070692;28;20039;-56
2023/12/07 12:06:56;;;;;;;11.00;5.20;;;6.90;99.90;;;;;;5071729;28;20044;-54
2023/12/07 12:09:24;;;;;;;13.63;5.87;;;6.90;99.90;;;;;;5071693;28;20028;-56
2023/12/07 12:11:50;;;;;;;12.03;5.67;;;7.00;99.90;;;;;;5071683;28;20043;-55
2023/12/07 12:14:16;;;;;;;13.23;6.10;;;7.30;99.90;;;;;;5071844;28;20032;-56
2023/12/07 12:16:48;;;;;;;12.10;5.33;;;7.70;99.90;;;;;;5071820;28;20052;-56
2023/12/07 12:19:17;;;;;;;10.77;4.40;;;7.70;99.90;;;;;;5071727;28;20028;-54
2023/12/07 12:21:46;;;;;;;10.07;4.80;;;7.80;99.90;;;;;;5071916;28;20039;-54
2023/12/07 12:24:12;;;;;;;8.13;4.27;;;8.10;99.90;;;;;;5071887;28;20036;-56
2023/12/07 12:26:40;;;;;;;9.43;5.00;;;8.30;99.90;;;;;;5071595;28;20124;-56
2023/12/07 12:29:08;;;;;;;10.90;5.07;;;8.30;99.90;;;;;;5071728;28;20097;-56
2023/12/07 12:31:34;;;;;;;7.97;4.03;;;8.40;99.90;;;;;;5071382;28;20489;-54
2023/12/07 12:34:05;;;;;;;12.37;5.50;;;8.40;99.90;;;;;;5071697;28;20075;-55
2023/12/07 12:36:30;;;;;;;10.60;4.50;;;8.60;99.90;;;;;;5071601;28;20101;-52
2023/12/07 12:38:56;;;;;;;11.93;5.50;;;8.80;99.90;;;;;;5071467;28;20477;-55